createdAt,value
2018-01-15T00:00:06.727Z,17.42
2018-01-15T00:02:41.207Z,19.80
2018-01-15T00:05:15.405Z,18.20
2018-01-15T00:07:49.201Z,18.33
2018-01-15T00:10:23.252Z,20.23
2018-01-15T00:12:57.888Z,15.85
2018-01-15T00:15:32.590Z,34.85
2018-01-15T00:18:07.141Z,138.18
2018-01-15T00:20:42.881Z,135.82
2018-01-15T00:23:16.899Z,127.78
2018-01-15T00:25:53.494Z,65.95
2018-01-15T00:28:27.553Z,45.92
2018-01-15T00:31:01.792Z,21.45
2018-01-15T00:33:35.632Z,18.48
2018-01-15T00:36:10.546Z,16.62
2018-01-15T00:38:44.422Z,23.30
2018-01-15T00:41:20.915Z,14.45
2018-01-15T00:43:54.815Z,20.00
2018-01-15T00:46:29.362Z,15.80
2018-01-15T00:49:03.124Z,20.73
2018-01-15T00:51:36.981Z,19.58
2018-01-15T00:54:11.877Z,19.73
2018-01-15T00:56:45.863Z,25.02
2018-01-15T00:59:20.840Z,18.30
2018-01-15T01:01:54.851Z,22.45
2018-01-15T01:04:28.850Z,16.27
2018-01-15T01:07:03.010Z,17.15
2018-01-15T01:09:36.957Z,22.90
2018-01-15T01:12:10.933Z,26.87
2018-01-15T01:14:45.090Z,29.98
2018-01-15T01:17:18.954Z,22.13
2018-01-15T01:19:54.668Z,35.30
2018-01-15T01:22:28.696Z,34.60
2018-01-15T01:25:03.357Z,115.60
2018-01-15T01:27:37.375Z,83.12
2018-01-15T01:30:11.781Z,97.28
2018-01-15T01:32:45.772Z,39.65
2018-01-15T01:35:19.930Z,37.20
2018-01-15T01:37:54.038Z,16.77
2018-01-15T01:40:27.950Z,22.55
2018-01-15T01:43:02.707Z,30.85
2018-01-15T01:45:37.514Z,19.40
2018-01-15T01:48:11.473Z,21.17
2018-01-15T01:50:46.243Z,15.30
2018-01-15T01:53:20.323Z,32.50
2018-01-15T01:55:54.649Z,17.90
2018-01-15T01:58:28.923Z,17.70
2018-01-15T02:01:03.750Z,20.65
2018-01-15T02:03:37.588Z,19.25
2018-01-15T02:06:12.067Z,17.20
2018-01-15T02:08:45.988Z,14.85
2018-01-15T02:11:20.034Z,17.15
2018-01-15T02:13:54.945Z,20.77
2018-01-15T02:16:29.247Z,16.25
2018-01-15T02:19:03.697Z,17.65
2018-01-15T02:21:38.614Z,18.05
2018-01-15T02:24:13.435Z,15.63
2018-01-15T02:26:48.104Z,45.40
2018-01-15T02:29:22.781Z,113.15
2018-01-15T02:31:56.706Z,177.32
2018-01-15T02:34:30.720Z,161.00
2018-01-15T02:37:04.748Z,56.83
2018-01-15T02:39:39.029Z,50.65
2018-01-15T02:42:14.112Z,29.63
2018-01-15T02:44:48.738Z,20.85
2018-01-15T02:47:22.578Z,19.77
2018-01-15T02:49:56.532Z,18.50
2018-01-15T02:52:31.124Z,17.23
2018-01-15T02:55:05.012Z,19.37
2018-01-15T02:57:39.406Z,15.32
2018-01-15T03:00:13.260Z,21.87
2018-01-15T03:02:48.062Z,15.15
2018-01-15T03:05:22.020Z,21.58
2018-01-15T03:07:56.407Z,19.58
2018-01-15T03:10:31.143Z,15.45
2018-01-15T03:13:05.307Z,18.83
2018-01-15T03:15:39.309Z,17.73
2018-01-15T03:18:13.008Z,18.58
2018-01-15T03:20:47.089Z,13.35
2018-01-15T03:23:21.810Z,20.60
2018-01-15T03:25:56.759Z,12.98
2018-01-15T03:28:31.415Z,21.85
2018-01-15T03:31:05.461Z,26.92
2018-01-15T03:33:40.491Z,24.40
2018-01-15T03:36:15.265Z,34.25
2018-01-15T03:38:49.245Z,85.65
2018-01-15T03:41:24.170Z,85.97
2018-01-15T03:43:59.641Z,59.78
2018-01-15T03:46:33.845Z,36.90
2018-01-15T03:49:07.682Z,17.55
2018-01-15T03:51:41.987Z,15.75
2018-01-15T03:54:17.648Z,21.87
2018-01-15T03:56:52.379Z,15.57
2018-01-15T03:59:26.263Z,34.30
2018-01-15T04:02:00.064Z,19.85
2018-01-15T04:04:34.418Z,22.67
2018-01-15T04:07:08.290Z,17.42
2018-01-15T04:09:42.351Z,37.85
2018-01-15T04:12:16.491Z,31.40
2018-01-15T04:14:50.355Z,20.95
2018-01-15T04:17:24.480Z,21.62
2018-01-15T04:19:58.414Z,22.33
2018-01-15T04:22:32.300Z,33.88
2018-01-15T04:25:06.063Z,25.02
2018-01-15T04:27:40.126Z,21.58
2018-01-15T04:30:15.125Z,32.47
2018-01-15T04:32:49.249Z,13.23
2018-01-15T04:35:25.044Z,15.07
2018-01-15T04:37:59.154Z,14.90
2018-01-15T04:40:34.584Z,43.75
2018-01-15T04:43:08.692Z,121.28
2018-01-15T04:45:42.897Z,118.95
2018-01-15T04:48:16.799Z,135.40
2018-01-15T04:50:51.003Z,110.90
2018-01-15T04:53:25.803Z,37.05
2018-01-15T04:55:59.752Z,43.35
2018-01-15T04:58:33.615Z,13.38
2018-01-15T05:01:07.480Z,16.05
2018-01-15T05:03:41.561Z,23.77
2018-01-15T05:06:16.084Z,14.65
2018-01-15T05:08:51.727Z,15.77
2018-01-15T05:11:26.536Z,13.95
2018-01-15T05:14:01.415Z,13.00
2018-01-15T05:16:39.290Z,15.27
2018-01-15T05:19:13.162Z,19.77
2018-01-15T05:21:47.171Z,14.50
2018-01-15T05:24:21.401Z,19.52
2018-01-15T05:26:55.764Z,13.93
2018-01-15T05:29:31.046Z,12.45
2018-01-15T05:32:05.394Z,22.40
2018-01-15T05:34:39.426Z,15.25
2018-01-15T05:41:48.974Z,15.10
2018-01-15T05:44:24.186Z,10.68
2018-01-15T05:46:58.187Z,22.40
2018-01-15T05:49:32.233Z,15.07
2018-01-15T05:52:07.464Z,11.95
2018-01-15T05:54:41.606Z,27.30
2018-01-15T05:57:16.931Z,21.37
2018-01-15T05:59:50.948Z,23.40
2018-01-15T06:02:25.962Z,19.08
2018-01-15T06:04:59.764Z,16.73
2018-01-15T06:07:34.433Z,15.93
2018-01-15T06:10:08.235Z,19.33
2018-01-15T06:12:42.161Z,16.67
2018-01-15T06:15:17.503Z,17.25
2018-01-15T06:17:54.685Z,18.67
2018-01-15T06:20:29.687Z,11.80
2018-01-15T06:23:04.589Z,18.65
2018-01-15T06:25:38.543Z,24.33
2018-01-15T06:28:13.107Z,23.65
2018-01-15T06:30:47.080Z,40.92
2018-01-15T06:33:21.094Z,31.52
2018-01-15T06:35:55.916Z,21.77
2018-01-15T06:38:29.918Z,25.55
2018-01-15T06:41:06.396Z,36.72
2018-01-15T06:43:40.545Z,27.58
2018-01-15T06:46:14.552Z,16.17
2018-01-15T06:48:48.589Z,23.23
2018-01-15T06:51:22.587Z,16.42
2018-01-15T06:53:57.471Z,17.23
2018-01-15T06:56:31.286Z,26.30
2018-01-15T06:59:05.800Z,12.63
2018-01-15T07:01:40.016Z,22.85
2018-01-15T07:04:13.873Z,43.00
2018-01-15T07:06:48.550Z,11.75
2018-01-15T07:09:22.430Z,13.80
2018-01-15T07:11:56.286Z,18.10
2018-01-15T07:14:30.691Z,25.52
2018-01-15T07:17:04.779Z,23.48
2018-01-15T07:19:39.518Z,17.98
2018-01-15T07:22:13.800Z,17.65
2018-01-15T07:24:48.911Z,11.52
2018-01-15T07:27:23.190Z,13.62
2018-01-15T07:29:57.055Z,25.40
2018-01-15T07:32:30.904Z,18.27
2018-01-15T07:35:05.063Z,34.75
2018-01-15T07:37:39.268Z,24.00
2018-01-15T07:40:14.803Z,17.95
2018-01-15T07:42:51.276Z,27.75
2018-01-15T07:45:28.089Z,22.33
2018-01-15T07:48:03.109Z,20.70
2018-01-15T07:50:37.484Z,24.48
2018-01-15T07:53:12.717Z,22.73
2018-01-15T07:55:46.717Z,35.20
2018-01-15T07:58:21.389Z,29.58
2018-01-15T08:00:56.495Z,31.58
2018-01-15T08:03:30.342Z,100.47
2018-01-15T08:06:04.413Z,38.95
2018-01-15T08:08:38.610Z,37.63
2018-01-15T08:11:13.667Z,25.77
2018-01-15T08:13:50.100Z,36.05
2018-01-15T08:16:23.958Z,32.28
2018-01-15T08:18:58.271Z,48.92
2018-01-15T08:21:32.005Z,86.85
2018-01-15T08:24:06.805Z,106.28
2018-01-15T08:26:41.075Z,128.77
2018-01-15T08:29:15.634Z,185.00
2018-01-15T08:31:50.243Z,207.70
2018-01-15T08:34:25.290Z,176.00
2018-01-15T08:36:59.776Z,136.45
2018-01-15T08:39:35.035Z,148.35
2018-01-15T08:42:09.210Z,174.90
2018-01-15T08:44:43.416Z,131.77
2018-01-15T08:47:18.359Z,167.13
2018-01-15T08:49:54.859Z,110.50
2018-01-15T08:52:29.913Z,101.43
2018-01-15T08:55:04.309Z,68.22
2018-01-15T08:57:38.474Z,55.42
2018-01-15T09:00:12.656Z,40.38
2018-01-15T09:02:46.521Z,31.02
2018-01-15T09:05:22.038Z,74.28
2018-01-15T09:07:56.741Z,103.55
2018-01-15T09:10:32.953Z,149.15
2018-01-15T09:13:07.676Z,219.57
2018-01-15T09:15:43.688Z,138.57
2018-01-15T09:18:17.853Z,111.55
2018-01-15T09:20:53.959Z,251.15
2018-01-15T09:23:28.223Z,139.68
2018-01-15T09:26:04.711Z,44.70
2018-01-15T09:28:39.010Z,154.98
2018-01-15T09:31:15.402Z,93.03
2018-01-15T09:33:50.465Z,121.53
2018-01-15T09:36:25.626Z,153.35
2018-01-15T09:39:00.228Z,64.45
2018-01-15T09:41:34.953Z,156.00
2018-01-15T09:44:09.362Z,146.98
2018-01-15T09:46:43.999Z,93.78
2018-01-15T09:49:18.787Z,107.43
2018-01-15T09:51:53.508Z,85.18
2018-01-15T09:54:28.459Z,23.02
2018-01-15T09:57:03.252Z,47.25
2018-01-15T09:59:41.463Z,48.25
2018-01-15T10:02:15.691Z,25.37
2018-01-15T10:04:50.429Z,29.60
2018-01-15T10:07:25.340Z,25.55
2018-01-15T10:10:00.109Z,20.33
2018-01-15T10:12:34.205Z,31.60
2018-01-15T10:15:09.030Z,70.90
2018-01-15T10:17:43.931Z,39.50
2018-01-15T10:20:18.392Z,34.35
2018-01-15T10:22:53.740Z,75.97
2018-01-15T10:25:28.351Z,75.10
2018-01-15T10:28:02.596Z,34.22
2018-01-15T10:30:36.589Z,117.30
2018-01-15T10:33:10.969Z,18.92
2018-01-15T10:35:46.223Z,12.93
2018-01-15T10:38:20.604Z,17.00
2018-01-15T10:40:55.294Z,17.77
2018-01-15T10:43:29.348Z,12.82
2018-01-15T10:46:03.094Z,11.90
2018-01-15T10:48:37.679Z,16.92
2018-01-15T10:51:12.195Z,17.62
2018-01-15T10:53:47.243Z,18.83
2018-01-15T10:56:21.590Z,20.52
2018-01-15T10:58:55.820Z,15.30
2018-01-15T11:01:29.963Z,13.43
2018-01-15T11:04:03.877Z,15.85
2018-01-15T11:06:38.083Z,13.20
2018-01-15T11:09:11.892Z,10.35
2018-01-15T11:11:46.758Z,13.23
2018-01-15T11:14:21.147Z,27.40
2018-01-15T11:16:56.170Z,11.50
2018-01-15T11:19:31.520Z,11.80
2018-01-15T11:22:06.727Z,15.80
2018-01-15T11:24:41.356Z,16.58
2018-01-15T11:27:16.479Z,20.30
2018-01-15T11:29:51.387Z,16.92
2018-01-15T11:32:26.828Z,23.67
2018-01-15T11:35:01.551Z,22.80
2018-01-15T11:37:35.793Z,18.00
2018-01-15T11:40:10.298Z,38.92
2018-01-15T11:42:44.152Z,22.60
2018-01-15T11:45:18.552Z,25.50
2018-01-15T11:47:56.029Z,33.70
2018-01-15T11:50:30.224Z,25.20
2018-01-15T11:53:04.919Z,27.30
2018-01-15T11:55:40.319Z,17.73
2018-01-15T11:58:14.496Z,10.82
2018-01-15T12:00:50.338Z,18.10
2018-01-15T12:03:24.262Z,16.33
2018-01-15T12:05:58.326Z,15.80
2018-01-15T12:08:32.134Z,12.00
2018-01-15T12:11:06.087Z,15.90
2018-01-15T12:13:42.458Z,7.68
2018-01-15T12:16:16.680Z,14.35
2018-01-15T12:18:50.386Z,16.45
2018-01-15T12:21:25.071Z,10.35
2018-01-15T12:23:58.826Z,14.35
2018-01-15T12:26:33.082Z,7.60
2018-01-15T12:29:08.170Z,9.10
2018-01-15T12:31:43.254Z,6.15
2018-01-15T12:34:17.199Z,5.20
2018-01-15T12:36:51.463Z,7.12
2018-01-15T12:39:25.321Z,9.07
2018-01-15T12:42:00.064Z,42.28
2018-01-15T12:44:33.926Z,48.95
2018-01-15T12:47:07.825Z,77.22
2018-01-15T12:49:42.661Z,63.50
2018-01-15T12:52:17.364Z,31.25
2018-01-15T12:54:51.479Z,19.90
2018-01-15T12:57:26.191Z,12.65
2018-01-15T13:00:00.864Z,16.90
2018-01-15T13:02:34.771Z,19.65
2018-01-15T13:05:09.428Z,22.58
2018-01-15T13:21:21.364Z,12.82
2018-01-15T13:23:57.713Z,22.73
2018-01-15T13:26:31.593Z,9.52
2018-01-15T13:29:06.574Z,15.07
2018-01-15T13:31:41.440Z,31.00
2018-01-15T13:34:15.654Z,7.82
2018-01-15T13:36:51.431Z,6.72
2018-01-15T13:39:25.340Z,28.40
2018-01-15T13:41:59.973Z,9.65
2018-01-15T13:44:34.732Z,8.68
2018-01-15T13:47:08.886Z,22.70
2018-01-15T13:49:44.318Z,12.20
2018-01-15T13:52:18.279Z,21.67
2018-01-15T13:54:52.875Z,11.98
2018-01-15T13:57:27.081Z,6.78
2018-01-15T14:00:01.656Z,19.50
2018-01-15T14:02:36.272Z,34.10
2018-01-15T14:05:11.584Z,10.73
2018-01-15T14:07:46.658Z,12.70
2018-01-15T14:10:20.994Z,16.85
2018-01-15T14:12:55.754Z,14.73
2018-01-15T14:15:30.812Z,14.38
2018-01-15T14:18:04.952Z,32.95
2018-01-15T14:20:41.087Z,16.58
2018-01-15T14:23:14.879Z,27.80
2018-01-15T14:25:51.035Z,14.87
2018-01-15T14:28:26.741Z,26.55
2018-01-15T14:31:02.149Z,17.95
2018-01-15T14:33:36.665Z,3.85
2018-01-15T14:36:10.691Z,3.10
2018-01-15T14:38:44.904Z,11.20
2018-01-15T14:41:20.034Z,53.13
2018-01-15T14:43:54.621Z,14.90
2018-01-15T14:46:28.910Z,19.30
2018-01-15T14:49:02.976Z,17.37
2018-01-15T14:51:38.169Z,26.58
2018-01-15T14:54:12.772Z,23.02
2018-01-15T14:56:46.845Z,9.13
2018-01-15T14:59:21.752Z,12.70
2018-01-15T15:01:56.713Z,8.52
2018-01-15T15:04:31.419Z,30.55
2018-01-15T15:07:07.153Z,19.40
2018-01-15T15:09:41.255Z,15.30
2018-01-15T15:12:17.436Z,32.42
2018-01-15T15:14:52.205Z,20.70
2018-01-15T15:17:29.513Z,51.58
2018-01-15T15:20:03.612Z,57.80
2018-01-15T15:22:37.475Z,83.57
2018-01-15T15:25:13.039Z,37.45
2018-01-15T15:27:47.277Z,34.25
2018-01-15T15:30:21.257Z,29.70
2018-01-15T15:32:55.418Z,65.97
2018-01-15T15:35:30.306Z,47.88
2018-01-15T15:38:04.311Z,282.17
2018-01-15T15:40:38.842Z,208.20
2018-01-15T15:43:13.482Z,171.87
2018-01-15T15:45:49.207Z,51.72
2018-01-15T15:48:23.338Z,45.17
2018-01-15T15:50:58.247Z,25.12
2018-01-15T15:53:32.489Z,89.65
2018-01-15T15:56:07.022Z,65.10
2018-01-15T15:58:41.131Z,38.58
2018-01-15T16:01:17.166Z,94.10
2018-01-15T16:03:51.260Z,59.47
2018-01-15T16:06:26.714Z,53.60
2018-01-15T16:09:02.432Z,79.40
2018-01-15T16:11:36.428Z,44.97
2018-01-15T16:14:10.342Z,68.72
2018-01-15T16:16:44.896Z,101.82
2018-01-15T16:19:19.730Z,97.47
2018-01-15T16:22:05.788Z,71.65
2018-01-15T16:24:40.388Z,32.65
2018-01-15T16:27:15.781Z,54.38
2018-01-15T16:29:49.773Z,44.28
2018-01-15T16:32:26.655Z,32.95
2018-01-15T16:35:04.644Z,19.05
2018-01-15T16:37:38.757Z,15.68
2018-01-15T16:40:12.998Z,25.10
2018-01-15T16:42:47.113Z,37.72
2018-01-15T16:45:21.052Z,16.52
2018-01-15T16:47:56.008Z,25.70
2018-01-15T16:50:34.134Z,51.55
2018-01-15T16:53:09.250Z,20.48
2018-01-15T16:55:43.327Z,17.83
2018-01-15T16:58:18.735Z,27.52
2018-01-15T17:00:52.831Z,45.17
2018-01-15T17:03:27.323Z,26.58
2018-01-15T17:06:01.738Z,19.37
2018-01-15T17:08:36.050Z,11.95
2018-01-15T17:11:10.028Z,25.37
2018-01-15T17:13:44.068Z,25.00
2018-01-15T17:16:17.781Z,18.65
2018-01-15T17:18:53.638Z,37.83
2018-01-15T17:21:27.484Z,25.67
2018-01-15T17:24:02.342Z,31.55
2018-01-15T17:26:36.478Z,12.68
2018-01-15T17:29:10.198Z,30.67
2018-01-15T17:31:45.115Z,50.30
2018-01-15T17:34:19.189Z,29.60
2018-01-15T17:36:54.205Z,41.35
2018-01-15T17:39:29.801Z,31.62
2018-01-15T17:42:04.643Z,33.97
2018-01-15T17:44:40.479Z,28.23
2018-01-15T17:47:18.765Z,32.65
2018-01-15T17:49:55.536Z,49.53
2018-01-15T17:52:31.456Z,41.35
2018-01-15T17:55:07.133Z,53.60
2018-01-15T17:57:43.121Z,79.07
2018-01-15T18:00:17.090Z,127.87
2018-01-15T18:02:51.243Z,96.03
2018-01-15T18:05:25.913Z,50.30
2018-01-15T18:08:00.088Z,80.18
2018-01-15T18:10:34.123Z,65.47
2018-01-15T18:13:09.014Z,91.70
2018-01-15T18:15:44.100Z,43.42
2018-01-15T18:18:17.907Z,52.17
2018-01-15T18:20:51.871Z,32.42
2018-01-15T18:23:26.550Z,50.58
2018-01-15T18:26:00.704Z,60.45
2018-01-15T18:28:34.966Z,41.97
2018-01-15T18:31:09.555Z,54.20
2018-01-15T18:33:44.459Z,38.60
2018-01-15T18:36:21.023Z,41.65
2018-01-15T18:38:56.734Z,37.67
2018-01-15T18:41:32.360Z,39.25
2018-01-15T18:44:07.934Z,49.65
2018-01-15T18:46:44.352Z,27.60
2018-01-15T18:49:19.104Z,37.70
2018-01-15T18:51:56.332Z,37.33
2018-01-15T18:54:34.988Z,33.03
2018-01-15T18:57:09.248Z,40.25
2018-01-15T18:59:44.421Z,31.25
2018-01-15T19:02:22.199Z,43.92
2018-01-15T19:04:57.892Z,51.10
2018-01-15T19:07:32.922Z,42.83
2018-01-15T19:10:07.202Z,36.78
2018-01-15T19:12:41.934Z,47.35
2018-01-15T19:15:18.565Z,13.98
2018-01-15T19:17:52.303Z,34.33
2018-01-15T19:20:26.319Z,118.85
2018-01-15T19:23:00.763Z,209.77
2018-01-15T19:25:34.861Z,74.60
2018-01-15T19:28:09.344Z,138.23
2018-01-15T19:30:43.896Z,177.27
2018-01-15T19:33:18.779Z,109.35
2018-01-15T19:35:58.122Z,120.68
2018-01-15T19:38:35.822Z,20.17
2018-01-15T19:41:09.973Z,144.32
2018-01-15T19:43:59.867Z,83.82
2018-01-15T19:46:39.443Z,33.78
2018-01-15T19:49:19.499Z,64.80
2018-01-15T19:51:59.097Z,193.20
2018-01-15T19:54:38.774Z,245.98
2018-01-15T19:57:18.362Z,156.18
2018-01-15T19:59:57.886Z,10.35
2018-01-15T20:02:37.321Z,15.30
2018-01-15T20:05:17.208Z,13.35
2018-01-15T20:07:56.824Z,23.90
2018-01-15T20:10:37.233Z,10.35
2018-01-15T20:13:11.013Z,29.95
2018-01-15T20:15:45.513Z,14.80
2018-01-15T20:18:20.611Z,28.08
2018-01-15T20:20:56.240Z,13.82
2018-01-15T20:23:30.895Z,31.70
2018-01-15T20:26:04.676Z,28.95
2018-01-15T20:28:39.455Z,57.47
2018-01-15T20:31:13.330Z,72.75
2018-01-15T20:33:47.132Z,87.18
2018-01-15T20:36:21.874Z,76.87
2018-01-15T20:38:59.439Z,39.08
2018-01-15T20:41:33.275Z,10.75
2018-01-15T20:44:07.006Z,8.32
2018-01-15T20:46:40.770Z,32.03
2018-01-15T20:49:14.401Z,16.80
2018-01-15T20:51:47.962Z,20.20
2018-01-15T20:54:22.763Z,6.85
2018-01-15T20:56:56.576Z,28.05
2018-01-15T20:59:31.086Z,38.28
2018-01-15T21:02:04.793Z,18.50
2018-01-15T21:09:13.053Z,7.50
2018-01-15T21:11:46.821Z,22.92
2018-01-15T21:14:21.006Z,6.25
2018-01-15T21:16:56.588Z,18.45
2018-01-15T21:19:30.320Z,12.07
2018-01-15T21:22:04.015Z,11.07
2018-01-15T21:24:38.346Z,6.93
2018-01-15T21:27:12.944Z,16.15
2018-01-15T21:29:47.230Z,8.73
2018-01-15T21:32:22.665Z,17.15
2018-01-15T21:34:59.336Z,7.85
2018-01-15T21:37:34.062Z,17.27
2018-01-15T21:40:08.616Z,16.67
2018-01-15T21:42:42.436Z,13.82
2018-01-15T21:45:16.955Z,23.85
2018-01-15T21:47:50.797Z,7.72
2018-01-15T21:50:25.195Z,14.60
2018-01-15T21:53:00.931Z,15.10
2018-01-15T21:55:34.568Z,16.37
2018-01-15T21:58:08.340Z,13.70
2018-01-15T22:00:42.359Z,8.75
2018-01-15T22:03:16.132Z,39.00
2018-01-15T22:05:50.629Z,48.30
2018-01-15T22:08:24.351Z,42.88
2018-01-15T22:10:58.476Z,39.85
2018-01-15T22:13:32.247Z,38.17
2018-01-15T22:16:06.777Z,34.05
2018-01-15T22:18:40.579Z,32.30
2018-01-15T22:21:15.734Z,32.05
2018-01-15T22:23:49.710Z,10.15
2018-01-15T22:26:23.992Z,38.97
2018-01-15T22:28:57.739Z,21.58
2018-01-15T22:31:32.215Z,11.63
2018-01-15T22:34:05.888Z,8.60
2018-01-15T22:36:39.551Z,9.48
2018-01-15T22:39:14.239Z,23.17
2018-01-15T22:41:50.420Z,5.85
2018-01-15T22:44:24.280Z,5.93
2018-01-15T22:46:58.028Z,21.70
2018-01-15T22:49:32.728Z,3.60
2018-01-15T22:52:06.996Z,3.30
2018-01-15T22:54:40.965Z,1.62
2018-01-15T22:57:15.754Z,4.70
2018-01-15T22:59:49.630Z,7.15
2018-01-15T23:02:23.996Z,5.55
2018-01-15T23:05:00.769Z,56.67
2018-01-15T23:07:35.479Z,15.18
2018-01-15T23:10:10.449Z,22.87
2018-01-15T23:12:44.607Z,3.25
2018-01-15T23:15:18.635Z,6.68
2018-01-15T23:17:53.256Z,24.90
2018-01-15T23:20:29.840Z,8.27
2018-01-15T23:23:03.773Z,5.43
2018-01-15T23:25:39.040Z,16.85
2018-01-15T23:28:14.441Z,12.13
2018-01-15T23:30:48.422Z,19.05
2018-01-15T23:33:23.166Z,5.32
2018-01-15T23:35:57.561Z,8.27
2018-01-15T23:38:32.062Z,4.28
2018-01-15T23:41:07.290Z,7.55
2018-01-15T23:43:42.123Z,4.25
2018-01-15T23:46:16.700Z,7.05
2018-01-15T23:48:51.654Z,19.67
2018-01-15T23:51:25.994Z,4.70
2018-01-15T23:53:59.942Z,6.18
2018-01-15T23:56:34.866Z,5.62
2018-01-15T23:59:11.379Z,1.48
